CKT7 weather

Wakaw Airport
Wakaw, Saskatchewan, Canada

Public forecast

Using degrees Celsius for public forecast. Weather courtesy of forecast.io.

METAR (pilot weather report)

Closest report is Prince Albert Glass Field, 34.1 nm (63.1 km) N. Retrieved 2019/05/19 16:00 UTC (8 minutes ago):

CYPA 191600Z 10009KT 030V120 15SM FEW050 12/M01 A3029 RMK CU2 SLP274

TAF (pilot weather forecast)

Closest forecast is Prince Albert Glass Field, 34.1 nm (63.1 km) N. Retrieved 2019/05/19 13:42 UTC (2 hours ago):

TAF CYPA 191238Z 1913/2001 VRB03KT P6SM FEW150 BECMG 1916/1918 09008KT RMK NXT FCST BY 191900Z